createdAt,value
2018-11-25T00:00:49.911Z,67.73
2018-11-25T00:03:19.482Z,62.77
2018-11-25T00:05:47.668Z,65.90
2018-11-25T00:08:15.912Z,63.83
2018-11-25T00:10:44.063Z,65.53
2018-11-25T00:13:12.250Z,67.43
2018-11-25T00:15:40.431Z,65.97
2018-11-25T00:18:08.643Z,72.07
2018-11-25T00:20:36.995Z,63.50
2018-11-25T00:23:05.957Z,61.80
2018-11-25T00:25:34.143Z,69.73
2018-11-25T00:28:02.557Z,68.23
2018-11-25T00:30:30.743Z,69.27
2018-11-25T00:32:58.945Z,64.77
2018-11-25T00:35:27.315Z,79.63
2018-11-25T00:37:55.548Z,66.53
2018-11-25T00:40:23.771Z,65.60
2018-11-25T00:42:51.956Z,70.40
2018-11-25T00:45:20.567Z,70.60
2018-11-25T00:47:49.561Z,68.07
2018-11-25T00:50:18.435Z,65.67
2018-11-25T00:52:46.622Z,63.60
2018-11-25T00:55:16.649Z,58.30
2018-11-25T00:57:44.921Z,64.70
2018-11-25T01:00:17.905Z,72.07
2018-11-25T01:02:46.838Z,67.07
2018-11-25T01:05:15.240Z,68.10
2018-11-25T01:07:43.539Z,79.33
2018-11-25T01:10:13.827Z,68.90
2018-11-25T01:12:42.130Z,73.87
2018-11-25T01:15:15.019Z,68.83
2018-11-25T01:17:43.364Z,71.27
2018-11-25T01:20:13.701Z,66.10
2018-11-25T01:22:41.943Z,71.73
2018-11-25T01:25:10.986Z,70.10
2018-11-25T01:27:39.215Z,72.73
2018-11-25T01:30:15.340Z,64.93
2018-11-25T01:32:43.585Z,75.60
2018-11-25T01:35:12.271Z,75.77
2018-11-25T01:37:40.498Z,65.83
2018-11-25T01:40:14.532Z,73.70
2018-11-25T01:42:42.708Z,71.70
2018-11-25T01:45:13.014Z,69.30
2018-11-25T01:47:41.188Z,73.17
2018-11-25T01:50:10.701Z,82.23
2018-11-25T01:52:39.061Z,80.53
2018-11-25T01:55:09.157Z,77.40
2018-11-25T01:57:37.343Z,78.70
2018-11-25T02:00:09.557Z,78.13
2018-11-25T02:02:42.768Z,82.43
2018-11-25T02:05:10.961Z,73.60
2018-11-25T02:07:39.630Z,79.87
2018-11-25T02:10:09.833Z,79.47
2018-11-25T02:12:38.039Z,80.67
2018-11-25T02:15:08.007Z,85.67
2018-11-25T02:17:36.408Z,94.53
2018-11-25T02:20:08.874Z,77.43
2018-11-25T02:22:37.096Z,87.87
2018-11-25T02:25:06.352Z,81.80
2018-11-25T02:27:34.567Z,82.73
2018-11-25T02:30:02.810Z,88.93
2018-11-25T02:32:31.027Z,86.80
2018-11-25T02:34:59.250Z,85.33
2018-11-25T02:37:27.430Z,89.17
2018-11-25T02:39:55.651Z,87.03
2018-11-25T02:42:24.850Z,82.27
2018-11-25T02:44:53.026Z,83.57
2018-11-25T02:47:21.355Z,94.83
2018-11-25T02:49:49.549Z,95.93
2018-11-25T02:52:17.781Z,89.57
2018-11-25T02:54:46.140Z,85.57
2018-11-25T02:57:14.340Z,89.93
2018-11-25T02:59:42.548Z,96.57
2018-11-25T03:02:10.764Z,91.77
2018-11-25T03:04:38.985Z,82.17
2018-11-25T03:07:07.252Z,90.33
2018-11-25T03:09:35.428Z,106.37
2018-11-25T03:12:03.652Z,92.83
2018-11-25T03:14:32.127Z,94.57
2018-11-25T03:17:00.411Z,96.37
2018-11-25T03:19:28.591Z,88.50
2018-11-25T03:21:56.766Z,85.93
2018-11-25T03:24:24.972Z,91.87
2018-11-25T03:26:53.157Z,91.67
2018-11-25T03:29:21.405Z,95.30
2018-11-25T03:31:49.677Z,91.17
2018-11-25T03:34:17.888Z,93.20
2018-11-25T03:36:46.066Z,92.80
2018-11-25T03:39:15.285Z,99.43
2018-11-25T03:41:43.477Z,95.23
2018-11-25T03:44:11.671Z,109.43
2018-11-25T03:46:39.869Z,105.50
2018-11-25T03:49:08.181Z,102.23
2018-11-25T03:51:36.388Z,94.77
2018-11-25T03:54:04.615Z,98.87
2018-11-25T03:56:32.792Z,99.03
2018-11-25T03:59:01.003Z,94.10
2018-11-25T04:01:29.890Z,89.63
2018-11-25T04:03:58.152Z,87.17
2018-11-25T04:06:26.368Z,85.20
2018-11-25T04:08:54.595Z,104.23
2018-11-25T04:11:22.812Z,97.23
2018-11-25T04:13:50.982Z,98.57
2018-11-25T04:16:19.339Z,89.33
2018-11-25T04:18:47.543Z,97.40
2018-11-25T04:21:15.971Z,97.20
2018-11-25T04:23:44.374Z,94.27
2018-11-25T04:26:12.551Z,98.97
2018-11-25T04:28:40.731Z,99.00
2018-11-25T04:31:09.380Z,84.53
2018-11-25T04:33:37.688Z,91.87
2018-11-25T04:36:05.877Z,95.50
2018-11-25T04:38:34.059Z,96.03
2018-11-25T04:41:02.229Z,94.87
2018-11-25T04:43:30.426Z,97.83
2018-11-25T04:45:58.661Z,92.13
2018-11-25T04:48:26.842Z,100.10
2018-11-25T04:50:55.043Z,88.43
2018-11-25T04:53:23.278Z,93.63
2018-11-25T04:55:51.525Z,99.67
2018-11-25T04:58:19.753Z,99.83
2018-11-25T05:00:47.955Z,94.40
2018-11-25T05:03:16.183Z,95.57
2018-11-25T05:05:44.408Z,97.20
2018-11-25T05:08:12.652Z,93.53
2018-11-25T05:10:40.818Z,102.47
2018-11-25T05:13:09.090Z,103.30
2018-11-25T05:15:37.960Z,90.57
2018-11-25T05:18:06.255Z,95.53
2018-11-25T05:20:34.444Z,98.00
2018-11-25T05:23:02.670Z,89.60
2018-11-25T05:25:31.153Z,93.10
2018-11-25T05:27:59.338Z,89.70
2018-11-25T05:30:27.541Z,91.23
2018-11-25T05:32:55.777Z,101.17
2018-11-25T05:35:24.084Z,99.73
2018-11-25T05:37:52.684Z,94.97
2018-11-25T05:40:20.914Z,90.23
2018-11-25T05:42:49.195Z,97.63
2018-11-25T05:45:18.184Z,97.23
2018-11-25T05:47:46.612Z,100.03
2018-11-25T05:50:16.692Z,95.33
2018-11-25T05:52:44.855Z,101.63
2018-11-25T05:55:13.288Z,93.73
2018-11-25T05:57:41.643Z,92.20
2018-11-25T06:00:21.956Z,99.70
2018-11-25T06:02:50.233Z,97.60
2018-11-25T06:05:18.413Z,88.47
2018-11-25T06:07:46.591Z,102.83
2018-11-25T06:10:14.869Z,92.00
2018-11-25T06:12:43.148Z,90.13
2018-11-25T06:15:12.286Z,95.10
2018-11-25T06:17:40.483Z,98.00
2018-11-25T06:20:11.920Z,94.80
2018-11-25T06:22:40.146Z,87.87
2018-11-25T06:25:09.732Z,99.60
2018-11-25T06:27:38.563Z,92.87
2018-11-25T06:30:10.353Z,100.60
2018-11-25T06:32:38.642Z,91.37
2018-11-25T06:35:08.254Z,95.07
2018-11-25T06:37:36.471Z,92.40
2018-11-25T06:40:07.096Z,95.07
2018-11-25T06:42:35.439Z,103.50
2018-11-25T06:45:03.651Z,93.13
2018-11-25T06:47:31.828Z,96.17
2018-11-25T06:50:00.063Z,88.57
2018-11-25T06:52:28.302Z,87.83
2018-11-25T06:54:56.542Z,96.03
2018-11-25T06:57:24.741Z,89.40
2018-11-25T06:59:52.931Z,96.97
2018-11-25T07:02:21.156Z,95.27
2018-11-25T07:04:49.373Z,90.70
2018-11-25T07:07:18.222Z,95.87
2018-11-25T07:09:46.501Z,99.20
2018-11-25T07:12:14.732Z,94.13
2018-11-25T07:14:42.967Z,93.17
2018-11-25T07:17:11.207Z,90.20
2018-11-25T07:19:39.477Z,96.67
2018-11-25T07:22:07.754Z,95.33
2018-11-25T07:24:36.010Z,105.43
2018-11-25T07:27:04.320Z,104.53
2018-11-25T07:29:32.557Z,97.20
2018-11-25T07:32:01.473Z,96.33
2018-11-25T07:34:29.637Z,99.80
2018-11-25T07:36:58.006Z,105.43
2018-11-25T07:39:26.273Z,95.13
2018-11-25T07:41:54.519Z,104.53
2018-11-25T07:44:22.692Z,105.33
2018-11-25T07:46:50.965Z,101.27
2018-11-25T07:49:19.145Z,116.60
2018-11-25T07:51:47.937Z,98.60
2018-11-25T07:54:16.146Z,101.23
2018-11-25T07:56:44.340Z,102.20
2018-11-25T07:59:12.543Z,113.50
2018-11-25T08:01:40.767Z,103.90
2018-11-25T08:04:09.129Z,105.17
2018-11-25T08:06:37.314Z,98.13
2018-11-25T08:09:07.811Z,106.97
2018-11-25T08:11:36.170Z,101.07
2018-11-25T08:14:04.493Z,105.53
2018-11-25T08:16:32.702Z,110.27
2018-11-25T08:19:01.000Z,105.30
2018-11-25T08:21:29.236Z,110.67
2018-11-25T08:23:57.511Z,97.63
2018-11-25T08:26:25.754Z,115.50
2018-11-25T08:28:54.010Z,104.10
2018-11-25T08:31:22.281Z,106.27
2018-11-25T08:33:50.524Z,114.13
2018-11-25T08:36:18.783Z,110.10
2018-11-25T08:38:47.223Z,103.43
2018-11-25T08:41:15.833Z,112.60
2018-11-25T08:43:47.549Z,115.63
2018-11-25T08:46:15.829Z,114.13
2018-11-25T08:48:49.645Z,115.30
2018-11-25T08:51:26.236Z,120.17
2018-11-25T08:53:54.497Z,119.87
2018-11-25T08:56:22.717Z,116.57
2018-11-25T08:58:50.915Z,111.87
2018-11-25T09:01:19.359Z,124.83
2018-11-25T09:03:47.744Z,125.67
2018-11-25T09:06:16.025Z,120.90
2018-11-25T09:08:44.284Z,118.00
2018-11-25T09:11:12.548Z,118.10
2018-11-25T09:13:40.725Z,123.33
2018-11-25T09:16:08.998Z,127.13
2018-11-25T09:18:37.285Z,123.37
2018-11-25T09:21:05.727Z,122.83
2018-11-25T09:23:35.117Z,127.17
2018-11-25T09:26:03.542Z,115.33
2018-11-25T09:28:32.967Z,121.20
2018-11-25T09:31:01.242Z,120.17
2018-11-25T09:33:30.589Z,120.70
2018-11-25T09:37:08.089Z,119.90
2018-11-25T09:39:36.380Z,120.33
2018-11-25T09:42:04.701Z,115.97
2018-11-25T09:44:32.979Z,118.17
2018-11-25T09:47:01.250Z,108.73
2018-11-25T09:49:29.607Z,115.40
2018-11-25T09:51:57.804Z,110.77
2018-11-25T09:54:26.080Z,107.67
2018-11-25T09:56:54.256Z,97.23
2018-11-25T09:59:22.517Z,96.73
2018-11-25T10:01:50.719Z,96.10
2018-11-25T10:04:18.932Z,98.23
2018-11-25T10:06:47.407Z,85.90
2018-11-25T10:09:16.924Z,87.60
2018-11-25T10:11:45.294Z,77.47
2018-11-25T10:14:13.637Z,85.77
2018-11-25T10:16:41.892Z,75.33
2018-11-25T10:19:10.301Z,80.77
2018-11-25T10:21:39.150Z,68.90
2018-11-25T10:24:07.403Z,71.17
2018-11-25T10:26:35.576Z,67.83
2018-11-25T10:29:03.808Z,69.10
2018-11-25T10:31:32.040Z,61.73
2018-11-25T10:34:00.370Z,64.23
2018-11-25T10:36:28.547Z,62.60
2018-11-25T10:38:57.807Z,65.90
2018-11-25T10:41:26.005Z,60.63
2018-11-25T10:46:27.610Z,73.87
2018-11-25T10:48:55.821Z,62.40
2018-11-25T10:51:24.111Z,62.17
2018-11-25T10:53:54.822Z,54.23
2018-11-25T10:56:23.263Z,62.87
2018-11-25T10:58:51.517Z,62.50
2018-11-25T11:02:02.626Z,57.07
2018-11-25T11:07:23.009Z,56.37
2018-11-25T11:21:23.968Z,53.00
2018-11-25T11:23:52.283Z,57.13
2018-11-25T11:26:25.410Z,61.87
2018-11-25T11:28:53.596Z,60.37
2018-11-25T11:31:21.809Z,63.87
2018-11-25T11:33:50.024Z,62.03
2018-11-25T11:36:18.203Z,61.37
2018-11-25T11:38:46.391Z,58.17
2018-11-25T11:41:14.698Z,63.73
2018-11-25T11:43:43.566Z,67.77
2018-11-25T11:46:11.876Z,69.33
2018-11-25T11:48:40.093Z,70.53
2018-11-25T11:51:08.254Z,70.40
2018-11-25T11:53:36.468Z,71.70
2018-11-25T11:56:04.864Z,76.40
2018-11-25T11:58:33.088Z,80.50
2018-11-25T12:01:01.273Z,71.77
2018-11-25T12:03:29.480Z,70.50
2018-11-25T12:05:57.702Z,80.30
2018-11-25T12:08:25.890Z,76.27
2018-11-25T12:10:54.109Z,81.63
2018-11-25T12:13:22.444Z,77.70
2018-11-25T12:15:50.687Z,81.77
2018-11-25T12:18:19.019Z,84.20
2018-11-25T12:20:47.243Z,80.27
2018-11-25T12:23:15.424Z,80.17
2018-11-25T12:25:43.622Z,86.90
2018-11-25T12:28:11.942Z,92.77
2018-11-25T12:30:40.175Z,90.50
2018-11-25T12:33:08.357Z,85.57
2018-11-25T12:35:36.695Z,88.93
2018-11-25T12:38:04.872Z,82.90
2018-11-25T12:40:33.069Z,89.10
2018-11-25T12:43:01.282Z,85.00
2018-11-25T12:45:29.540Z,97.57
2018-11-25T12:47:57.778Z,91.97
2018-11-25T12:50:26.765Z,85.80
2018-11-25T12:52:55.352Z,90.07
2018-11-25T12:55:24.667Z,88.23
2018-11-25T12:57:53.259Z,94.20
2018-11-25T13:00:24.716Z,87.93
2018-11-25T13:02:52.985Z,87.07
2018-11-25T13:05:21.332Z,85.30
2018-11-25T13:07:49.538Z,89.27
2018-11-25T13:10:17.732Z,81.20
2018-11-25T13:12:45.911Z,80.23
2018-11-25T13:15:14.149Z,78.33
2018-11-25T13:17:42.388Z,84.53
2018-11-25T13:20:17.868Z,84.13
2018-11-25T13:22:46.250Z,81.43
2018-11-25T13:25:16.399Z,76.73
2018-11-25T13:27:44.860Z,70.97
2018-11-25T13:30:17.306Z,76.63
2018-11-25T13:32:45.924Z,70.90
2018-11-25T13:35:14.262Z,72.67
2018-11-25T13:37:42.585Z,75.40
2018-11-25T13:40:12.146Z,78.50
2018-11-25T13:42:40.411Z,81.90
2018-11-25T13:45:07.611Z,76.63
2018-11-25T13:47:43.460Z,78.93
2018-11-25T13:50:12.337Z,77.50
2018-11-25T13:52:40.651Z,72.60
2018-11-25T13:55:17.377Z,70.87
2018-11-25T13:57:46.213Z,72.27
2018-11-25T14:00:27.059Z,76.43
2018-11-25T14:02:55.407Z,69.63
2018-11-25T14:05:23.907Z,74.77
2018-11-25T14:07:52.131Z,70.57
2018-11-25T14:10:25.043Z,74.07
2018-11-25T14:12:53.534Z,70.87
2018-11-25T14:15:21.832Z,65.33
2018-11-25T14:17:50.222Z,67.47
2018-11-25T14:20:18.839Z,73.20
2018-11-25T14:22:49.071Z,77.10
2018-11-25T14:25:18.747Z,67.17
2018-11-25T14:27:48.543Z,67.63
2018-11-25T14:30:33.809Z,71.73
2018-11-25T14:33:02.834Z,68.57
2018-11-25T14:35:31.068Z,64.00
2018-11-25T14:37:59.490Z,67.40
2018-11-25T14:40:27.874Z,64.67
2018-11-25T14:42:56.196Z,64.30
2018-11-25T14:45:24.485Z,59.20
2018-11-25T14:47:52.752Z,61.87
2018-11-25T14:50:21.126Z,67.10
2018-11-25T14:52:50.495Z,62.47
2018-11-25T14:55:19.173Z,65.37
2018-11-25T14:57:47.732Z,63.93
2018-11-25T15:00:17.253Z,61.67
2018-11-25T15:02:46.874Z,59.90
2018-11-25T15:05:17.708Z,68.57
2018-11-25T15:07:46.048Z,60.53
2018-11-25T15:10:14.412Z,63.20
2018-11-25T15:12:42.686Z,64.57
2018-11-25T15:15:12.521Z,62.20
2018-11-25T15:17:41.649Z,61.33
2018-11-25T15:20:13.675Z,60.47
2018-11-25T15:22:43.444Z,64.07
2018-11-25T15:25:17.540Z,60.33
2018-11-25T15:27:45.773Z,67.53
2018-11-25T15:30:31.777Z,64.47
2018-11-25T15:32:59.975Z,67.80
2018-11-25T15:35:28.194Z,66.37
2018-11-25T15:37:56.475Z,69.13
2018-11-25T15:40:27.211Z,66.13
2018-11-25T15:42:55.454Z,63.67
2018-11-25T15:45:23.638Z,70.33
2018-11-25T15:47:58.615Z,66.07
2018-11-25T15:57:04.266Z,63.27
2018-11-25T15:59:32.468Z,60.37
2018-11-25T16:02:00.853Z,59.90
2018-11-25T16:07:27.961Z,57.10
2018-11-25T16:10:01.830Z,61.97
2018-11-25T16:12:52.943Z,65.27
2018-11-25T16:15:23.210Z,65.27
2018-11-25T16:17:51.384Z,61.17
2018-11-25T16:20:27.184Z,63.30
2018-11-25T16:23:06.586Z,65.33
2018-11-25T16:25:39.519Z,70.57
2018-11-25T16:28:21.332Z,77.53
2018-11-25T16:30:49.659Z,68.77
2018-11-25T16:33:17.899Z,62.93
2018-11-25T16:35:46.660Z,57.70
2018-11-25T16:38:19.845Z,58.57
2018-11-25T16:40:48.873Z,57.13
2018-11-25T16:43:17.082Z,58.37
2018-11-25T16:45:45.298Z,57.17
2018-11-25T16:48:13.589Z,57.17
2018-11-25T16:50:41.811Z,60.83
2018-11-25T16:53:10.144Z,55.90
2018-11-25T16:55:38.351Z,56.30
2018-11-25T16:58:07.139Z,60.10
2018-11-25T17:00:41.625Z,64.57
2018-11-25T17:03:09.901Z,54.90
2018-11-25T17:05:40.211Z,57.87
2018-11-25T17:08:24.416Z,56.47
2018-11-25T17:10:52.660Z,55.27
2018-11-25T17:13:21.684Z,58.63
2018-11-25T17:15:50.251Z,54.60
2018-11-25T17:18:18.885Z,50.23
2018-11-25T17:20:47.075Z,54.50
2018-11-25T17:23:15.555Z,54.97
2018-11-25T17:25:43.797Z,51.23
2018-11-25T17:28:12.053Z,46.03
2018-11-25T17:30:40.392Z,48.57
2018-11-25T17:33:09.123Z,50.50
2018-11-25T17:35:37.402Z,47.27
2018-11-25T17:38:06.013Z,49.87
2018-11-25T17:40:34.242Z,50.47
2018-11-25T17:43:02.719Z,48.13
2018-11-25T17:45:30.993Z,46.80
2018-11-25T17:47:59.378Z,45.90
2018-11-25T17:50:31.452Z,48.23
2018-11-25T17:53:01.667Z,48.03
2018-11-25T17:55:30.828Z,50.60
2018-11-25T17:57:59.223Z,49.17
2018-11-25T18:00:39.766Z,47.80
2018-11-25T18:03:17.628Z,47.00
2018-11-25T18:05:45.906Z,44.17
2018-11-25T18:08:14.163Z,46.87
2018-11-25T18:10:42.481Z,46.17
2018-11-25T18:13:11.998Z,47.07
2018-11-25T18:15:40.623Z,42.10
2018-11-25T18:18:13.695Z,50.77
2018-11-25T18:20:53.404Z,48.53
2018-11-25T18:23:22.048Z,42.80
2018-11-25T18:25:50.503Z,51.00
2018-11-25T18:28:18.715Z,44.90
2018-11-25T18:30:47.007Z,47.10
2018-11-25T18:33:15.199Z,45.43
2018-11-25T18:35:43.497Z,53.37
2018-11-25T18:38:11.779Z,44.23
2018-11-25T18:40:40.064Z,46.20
2018-11-25T18:46:04.494Z,46.43
2018-11-25T18:48:33.754Z,45.27
2018-11-25T18:51:01.911Z,43.17
2018-11-25T18:53:30.444Z,40.83
2018-11-25T18:56:01.585Z,46.77
2018-11-25T18:58:29.960Z,43.63
2018-11-25T19:01:03.183Z,44.83
2018-11-25T19:03:31.418Z,42.23
2018-11-25T19:05:59.715Z,40.53
2018-11-25T19:08:28.087Z,47.73
2018-11-25T19:10:56.405Z,41.70
2018-11-25T19:13:24.692Z,47.37
2018-11-25T19:15:52.949Z,51.27
2018-11-25T19:18:21.320Z,50.13
2018-11-25T19:20:49.724Z,47.17
2018-11-25T19:23:19.122Z,49.87
2018-11-25T19:25:47.680Z,44.77
2018-11-25T19:28:17.318Z,41.80
2018-11-25T19:30:46.042Z,43.73
2018-11-25T19:33:14.700Z,41.13
2018-11-25T19:35:44.459Z,47.90
2018-11-25T19:38:13.205Z,48.23
2018-11-25T19:40:41.816Z,52.07
2018-11-25T19:43:10.371Z,45.37
2018-11-25T19:45:38.960Z,45.07
2018-11-25T19:48:07.504Z,44.23
2018-11-25T19:50:37.423Z,46.17
2018-11-25T19:53:11.012Z,41.50
2018-11-25T19:55:40.435Z,44.33
2018-11-25T19:58:09.068Z,37.20
2018-11-25T20:00:38.030Z,45.27
2018-11-25T20:03:06.962Z,39.47
2018-11-25T20:05:35.602Z,42.50
2018-11-25T20:08:05.605Z,41.87
2018-11-25T20:10:34.160Z,45.40
2018-11-25T20:13:02.656Z,43.87
2018-11-25T20:15:31.880Z,41.43
2018-11-25T20:18:00.347Z,45.07
2018-11-25T20:20:29.917Z,39.80
2018-11-25T20:22:58.236Z,39.00
2018-11-25T20:25:26.500Z,35.90
2018-11-25T20:27:55.787Z,43.33
2018-11-25T20:30:28.970Z,39.87
2018-11-25T20:33:02.512Z,38.93
2018-11-25T20:35:30.822Z,40.37
2018-11-25T20:38:04.869Z,41.50
2018-11-25T20:40:34.690Z,44.60
2018-11-25T20:43:03.149Z,33.57
2018-11-25T20:45:39.073Z,39.17
2018-11-25T20:48:06.562Z,44.03
2018-11-25T20:50:34.772Z,36.00
2018-11-25T20:53:08.622Z,37.87
2018-11-25T20:55:37.044Z,40.23
2018-11-25T20:58:07.074Z,41.23
2018-11-25T21:00:35.646Z,40.97
2018-11-25T21:03:03.949Z,41.87
2018-11-25T21:05:32.469Z,39.33
2018-11-25T21:08:06.960Z,40.10
2018-11-25T21:10:35.625Z,40.23
2018-11-25T21:13:03.929Z,41.17
2018-11-25T21:15:33.701Z,38.87
2018-11-25T21:18:02.504Z,42.40
2018-11-25T21:20:31.373Z,42.53
2018-11-25T21:23:00.351Z,41.70
2018-11-25T21:25:29.327Z,40.07
2018-11-25T21:27:58.197Z,43.00
2018-11-25T21:30:27.661Z,39.00
2018-11-25T21:32:58.212Z,42.37
2018-11-25T21:35:26.604Z,42.87
2018-11-25T21:37:54.859Z,41.57
2018-11-25T21:40:24.100Z,39.30
2018-11-25T21:42:54.718Z,44.30
2018-11-25T21:45:30.752Z,44.03
2018-11-25T21:47:59.170Z,44.40
2018-11-25T21:50:28.742Z,38.13
2018-11-25T21:52:56.947Z,45.63
2018-11-25T21:55:25.858Z,44.30
2018-11-25T21:57:54.069Z,41.97
2018-11-25T22:00:23.276Z,44.60
2018-11-25T22:03:54.102Z,36.17
2018-11-25T22:06:22.366Z,38.60
2018-11-25T22:08:50.745Z,39.23
2018-11-25T22:11:18.940Z,39.43
2018-11-25T22:13:47.364Z,36.50
2018-11-25T22:16:15.744Z,35.80
2018-11-25T22:18:44.878Z,34.43
2018-11-25T22:21:13.074Z,28.00
2018-11-25T22:23:41.450Z,32.20
2018-11-25T22:26:09.671Z,32.40
2018-11-25T22:28:37.883Z,33.80
2018-11-25T22:31:08.812Z,33.10
2018-11-25T22:33:39.316Z,32.40
2018-11-25T22:36:07.700Z,30.27
2018-11-25T22:38:36.464Z,30.47
2018-11-25T22:41:04.990Z,29.90
2018-11-25T22:43:33.976Z,30.13
2018-11-25T22:46:02.238Z,33.10
2018-11-25T22:48:30.517Z,36.53
2018-11-25T22:50:58.710Z,30.83
2018-11-25T22:53:26.933Z,35.53
2018-11-25T22:55:56.486Z,36.07
2018-11-25T22:58:24.735Z,29.77
2018-11-25T23:00:53.850Z,33.23
2018-11-25T23:03:22.208Z,32.00
2018-11-25T23:06:01.560Z,34.97
2018-11-25T23:08:29.728Z,32.73
2018-11-25T23:10:57.905Z,38.10
2018-11-25T23:13:26.081Z,33.80
2018-11-25T23:15:54.391Z,34.50
2018-11-25T23:18:22.535Z,37.77
2018-11-25T23:20:51.984Z,30.50
2018-11-25T23:23:20.467Z,33.00
2018-11-25T23:25:48.691Z,32.13
2018-11-25T23:28:16.864Z,31.83
2018-11-25T23:30:45.204Z,34.10
2018-11-25T23:33:13.350Z,31.97
2018-11-25T23:35:41.602Z,31.87
2018-11-25T23:38:09.846Z,32.80
2018-11-25T23:40:38.040Z,30.40
2018-11-25T23:43:07.026Z,31.10
2018-11-25T23:45:35.306Z,29.43
2018-11-25T23:48:03.504Z,32.03
2018-11-25T23:50:31.744Z,31.53
2018-11-25T23:52:59.929Z,31.60
2018-11-25T23:55:28.302Z,27.63
2018-11-25T23:57:57.043Z,32.87
